METAR Data
IDs: Format: Raw Decoded Include TAF

Data at: 0514 UTC 24 Sep 2018

KJLN 240453Z AUTO 11006KT 10SM FEW015 OVC033 21/18 A2998 RMK AO2 SLP143 T02060178
KJLN 240353Z AUTO 11006KT 10SM OVC034 21/18 A2998 RMK AO2 SLP144 T02110178
KJLN 240253Z AUTO 08004KT 10SM OVC034 21/17 A2998 RMK AO2 SLP145 T02110172 53005
KJLN 240153Z 07003KT 10SM OVC032 22/17 A2998 RMK AO2 SLP143 T02170172
KJLN 240053Z 05004KT 10SM OVC030 22/17 A2997 RMK AO2 SLP140 T02170167
KJLN 232353Z 10006KT 10SM SCT034 22/17 A2997 RMK AO2 SLP140 T02220167 10261 20222 55001
KJLN 232253Z 11010KT 10SM CLR 23/17 A2997 RMK AO2 SLP140 T02330167
KJLN 232153Z 09007KT 10SM FEW037 24/16 A2996 RMK AO2 SLP138 T02440161
KJLN 232053Z 09005KT 10SM CLR 25/16 A2997 RMK AO2 SLP141 T02500161 56025
KJLN 231953Z 11009KT 10SM CLR 26/16 A2999 RMK AO2 SLP147 T02560161
KJLN 231853Z 10010KT 10SM CLR 24/16 A3002 RMK AO2 SLP157 T02440156
KJLN 231753Z 10009G16KT 10SM SCT027 24/16 A3005 RMK AO2 SLP167 T02390156 10244 20167 58011
KJLN 231653Z COR 08006G14KT 10SM SCT027 23/16 A3007 RMK AO2 SLP173 T02330161
KJLN 231649Z 08007G14KT 10SM SCT027 23/16 A3007 RMK AO2
KJLN 231553Z 10008KT 10SM BKN023 22/16 A3008 RMK AO2 SLP180 T02170161
KJLN 231517Z 10009KT 10SM BKN021 21/16 A3008 RMK AO2 T02110156
KJLN 231453Z 08009KT 10SM SCT018 20/16 A3008 RMK AO2 SLP180 T02000156 52007
KJLN 231425Z 11007KT 10SM SCT022 19/16 A3008 RMK AO2 T01940156
KJLN 231353Z 10005KT 10SM BKN022 18/16 A3007 RMK AO2 SLP177 T01830156
KJLN 231253Z 09004KT 10SM OVC018 17/16 A3007 RMK AO2 SLP175 T01720156
KJLN 231153Z 08004KT 10SM OVC018 17/15 A3006 RMK AO2 SLP172 T01720150 10172 20161 55001
KJLN 231053Z 08003KT 10SM OVC020 17/15 A3005 RMK AO2 SLP170 T01670150
KJLN 230953Z AUTO 07004KT 10SM OVC020 17/15 A3005 RMK AO2 SLP171 T01670150
KJLN 230853Z AUTO 06004KT 10SM OVC021 16/15 A3006 RMK AO2 SLP173 T01610150 58005
KJLN 230753Z AUTO 04003KT 10SM OVC023 16/15 A3007 RMK AO2 SLP177 T01610150
KJLN 230653Z AUTO 06003KT 10SM OVC023 16/15 A3007 RMK AO2 SLP177 T01610150
KJLN 230553Z AUTO 07004KT 10SM OVC020 17/15 A3008 RMK AO2 SLP179 T01670150 10194 20150 402170139 58008
KJLN 230453Z AUTO 08006KT 10SM OVC022 17/15 A3009 RMK AO2 SLP183 T01670150
KJLN 230429Z AUTO 10005KT 10SM BKN023 17/15 A3010 RMK AO2 T01670150
KJLN 230353Z AUTO 09005KT 10SM CLR 16/14 A3010 RMK AO2 SLP187 T01560144
KJLN 230253Z AUTO 07003KT 9SM CLR 16/14 A3010 RMK AO2 SLP189 T01560144 53004
KJLN 230153Z 00000KT 10SM CLR 17/15 A3010 RMK AO2 SLP187 T01670150
KJLN 230053Z 08003KT 10SM CLR 18/15 A3009 RMK AO2 SLP185 T01780150
KJLN 222353Z 13005KT 10SM CLR 19/15 A3009 RMK AO2 SLP184 T01940150 10217 20194 56007
KJLN 222253Z 09007KT 10SM CLR 21/15 A3009 RMK AO2 SLP184 T02060150
KJLN 222207Z VRB06KT 10SM SCT024 21/15 A3010 RMK AO2 T02110150
KJLN 222153Z 07007KT 10SM BKN024 21/15 A3010 RMK AO2 SLP188 T02060150
KJLN 222053Z 07006KT 10SM BKN024 21/15 A3011 RMK AO2 SLP190 T02110150 58022
KJLN 221953Z 07007KT 10SM BKN025 21/15 A3013 RMK AO2 SLP198 T02060150
KJLN 221853Z 07007KT 10SM BKN021 20/15 A3016 RMK AO2 SLP207 T02000150
KJLN 221753Z COR 06008G14KT 10SM BKN023 20/14 A3018 RMK AO2 SLP214 T02000144 10200 20139 58008
KJLN 221736Z 08006G15KT 10SM BKN022 19/14 A3019 RMK AO2 T01940139